createdAt,value
2016-12-28T00:01:14.966Z,7.49
2016-12-28T00:04:08.359Z,7.50
2016-12-28T00:07:01.815Z,7.51
2016-12-28T00:09:55.253Z,7.51
2016-12-28T00:12:48.634Z,7.50
2016-12-28T00:15:42.166Z,7.49
2016-12-28T00:18:35.661Z,7.50
2016-12-28T00:24:22.801Z,7.49
2016-12-28T00:27:16.286Z,7.48
2016-12-28T00:30:09.806Z,7.48
2016-12-28T00:33:03.312Z,7.46
2016-12-28T00:35:56.798Z,7.46
2016-12-28T00:44:37.895Z,7.43
2016-12-28T00:47:31.411Z,7.41
2016-12-28T00:50:24.881Z,7.40
2016-12-28T00:53:18.343Z,7.39
2016-12-28T00:56:11.732Z,7.37
2016-12-28T00:59:05.184Z,7.32
2016-12-28T01:01:58.540Z,7.31
2016-12-28T01:04:52.006Z,7.29
2016-12-28T01:07:45.478Z,7.27
2016-12-28T01:10:38.902Z,7.26
2016-12-28T01:13:32.320Z,7.24
2016-12-28T01:22:12.704Z,7.18
2016-12-28T01:27:59.528Z,7.18
2016-12-28T01:30:53.410Z,7.16
2016-12-28T01:33:46.917Z,7.14
2016-12-28T01:39:33.852Z,7.12
2016-12-28T01:42:27.244Z,7.11
2016-12-28T01:48:14.255Z,7.09
2016-12-28T01:51:07.676Z,7.08
2016-12-28T01:54:01.134Z,7.08
2016-12-28T01:59:48.184Z,7.07
2016-12-28T02:05:35.134Z,7.06
2016-12-28T02:08:28.484Z,7.07
2016-12-28T02:17:08.968Z,7.04
2016-12-28T02:20:02.381Z,7.05
2016-12-28T02:22:55.890Z,7.05
2016-12-28T02:25:49.401Z,7.04
2016-12-28T02:28:42.801Z,7.03
2016-12-28T02:31:36.206Z,7.04
2016-12-28T02:37:23.612Z,7.02
2016-12-28T02:40:17.058Z,7.02
2016-12-28T02:48:57.237Z,6.99
2016-12-28T02:51:50.701Z,6.99
2016-12-28T02:57:37.555Z,6.95
2016-12-28T03:00:30.976Z,6.94
2016-12-28T03:03:24.507Z,6.93
2016-12-28T03:06:18.125Z,6.93
2016-12-28T03:09:11.617Z,6.92
2016-12-28T03:12:05.127Z,6.93
2016-12-28T03:14:58.516Z,6.92
2016-12-28T03:26:32.261Z,6.94
2016-12-28T03:32:19.102Z,6.96
2016-12-28T03:35:12.562Z,6.97
2016-12-28T03:41:00.515Z,6.99
2016-12-28T03:43:53.006Z,7.00
2016-12-28T03:46:46.478Z,6.99
2016-12-28T03:52:33.444Z,6.99
2016-12-28T03:55:26.978Z,7.01
2016-12-28T03:58:20.402Z,7.00
2016-12-28T04:04:07.292Z,6.99
2016-12-28T04:12:47.553Z,7.00
2016-12-28T04:18:34.442Z,7.01
2016-12-28T04:21:27.903Z,7.01
2016-12-28T04:24:21.260Z,7.01
2016-12-28T04:27:14.659Z,7.01
2016-12-28T04:30:08.050Z,7.01
2016-12-28T04:44:35.526Z,7.00
2016-12-28T04:47:28.972Z,6.98
2016-12-28T04:53:15.804Z,6.97
2016-12-28T04:56:09.320Z,6.96
2016-12-28T04:59:02.774Z,6.96
2016-12-28T05:07:43.064Z,6.94
2016-12-28T05:10:36.605Z,6.94
2016-12-28T05:13:29.957Z,6.94
2016-12-28T05:16:23.339Z,6.94
2016-12-28T05:19:16.920Z,6.93
2016-12-28T05:22:10.216Z,6.93
2016-12-28T05:25:03.726Z,6.93
2016-12-28T05:30:50.649Z,6.93
2016-12-28T05:39:31.235Z,6.92
2016-12-28T05:42:24.752Z,6.91
2016-12-28T05:45:18.177Z,6.91
2016-12-28T05:48:11.776Z,6.91
2016-12-28T05:51:05.121Z,6.91
2016-12-28T05:53:58.578Z,6.91
2016-12-28T05:56:51.958Z,6.90
2016-12-28T06:02:38.819Z,6.87
2016-12-28T06:05:32.274Z,6.87
2016-12-28T06:14:12.550Z,6.86
2016-12-28T06:17:06.139Z,6.84
2016-12-28T06:19:59.667Z,6.84
2016-12-28T06:28:41.241Z,6.83
2016-12-28T06:31:33.742Z,6.82
2016-12-28T06:34:27.276Z,6.81
2016-12-28T06:40:14.209Z,6.81
2016-12-28T06:46:01.236Z,6.81
2016-12-28T06:48:54.718Z,6.82
2016-12-28T06:57:35.341Z,6.79
2016-12-28T07:00:28.815Z,6.78
2016-12-28T07:03:22.307Z,6.77
2016-12-28T07:06:15.740Z,6.75
2016-12-28T07:12:02.705Z,6.75
2016-12-28T07:14:56.151Z,6.76
2016-12-28T07:17:49.876Z,6.78
2016-12-28T07:23:37.992Z,6.81
2016-12-28T07:26:30.539Z,6.81
2016-12-28T07:32:17.398Z,6.82
2016-12-28T07:35:10.865Z,6.82
2016-12-28T07:43:51.259Z,6.88
2016-12-28T07:46:44.738Z,6.88
2016-12-28T07:49:39.155Z,6.87
2016-12-28T07:52:31.754Z,6.86
2016-12-28T07:55:25.172Z,6.86
2016-12-28T07:58:18.620Z,6.87
2016-12-28T08:01:12.019Z,6.88
2016-12-28T08:04:05.649Z,6.87
2016-12-28T08:06:59.064Z,6.87
2016-12-28T08:09:52.652Z,6.87
2016-12-28T08:12:46.228Z,6.86
2016-12-28T08:15:39.736Z,6.85
2016-12-28T08:18:33.297Z,6.88
2016-12-28T08:21:26.889Z,6.89
2016-12-28T08:24:20.271Z,6.91
2016-12-28T08:27:13.847Z,6.93
2016-12-28T08:30:07.351Z,6.94
2016-12-28T08:33:01.428Z,6.96
2016-12-28T08:35:54.982Z,6.97
2016-12-28T08:41:42.633Z,6.99
2016-12-28T08:44:36.635Z,7.00
2016-12-28T08:47:30.225Z,6.98
2016-12-28T08:53:17.143Z,7.00
2016-12-28T08:56:10.593Z,7.02
2016-12-28T08:59:04.163Z,7.04
2016-12-28T09:01:57.829Z,7.06
2016-12-28T09:04:51.377Z,7.08
2016-12-28T09:07:44.892Z,7.11
2016-12-28T09:10:38.407Z,7.11
2016-12-28T09:13:31.798Z,7.11
2016-12-28T09:19:18.765Z,7.16
2016-12-28T09:22:12.371Z,7.19
2016-12-28T09:25:05.951Z,7.22
2016-12-28T09:33:46.398Z,7.30
2016-12-28T09:36:39.952Z,7.32
2016-12-28T09:39:33.550Z,7.35
2016-12-28T09:45:20.765Z,7.43
2016-12-28T09:51:07.807Z,7.44
2016-12-28T09:54:01.305Z,7.44
2016-12-28T09:56:54.878Z,7.45
2016-12-28T09:59:48.295Z,7.47
2016-12-28T10:02:41.788Z,7.49
2016-12-28T10:05:35.285Z,7.51
2016-12-28T10:08:28.820Z,7.54
2016-12-28T10:17:09.407Z,7.59
2016-12-28T10:25:49.981Z,7.64
2016-12-28T10:28:43.422Z,7.67
2016-12-28T10:34:30.592Z,7.73
2016-12-28T10:37:24.177Z,7.75
2016-12-28T10:40:17.694Z,7.77
2016-12-28T10:43:11.255Z,7.80
2016-12-28T10:46:04.756Z,7.84
2016-12-28T10:54:45.320Z,7.91
2016-12-28T10:57:38.949Z,7.92
2016-12-28T11:00:32.447Z,7.91
2016-12-28T11:03:26.072Z,7.91
2016-12-28T11:06:19.630Z,7.93
2016-12-28T11:09:13.106Z,7.94
2016-12-28T11:12:06.494Z,7.93
2016-12-28T11:14:59.970Z,7.95
2016-12-28T11:17:53.433Z,7.96
2016-12-28T11:20:46.999Z,7.95
2016-12-28T11:23:40.533Z,7.97
2016-12-28T11:29:27.441Z,8.00
2016-12-28T11:32:20.961Z,7.99
2016-12-28T11:35:14.472Z,8.00
2016-12-28T11:41:01.531Z,7.98
2016-12-28T11:46:48.532Z,7.96
2016-12-28T11:52:36.655Z,7.94
2016-12-28T11:55:29.222Z,7.97
2016-12-28T11:58:22.736Z,7.97
2016-12-28T12:01:16.315Z,7.99
2016-12-28T12:04:09.768Z,8.01
2016-12-28T12:07:03.281Z,8.01
2016-12-28T12:18:38.022Z,8.16
2016-12-28T12:21:31.688Z,8.19
2016-12-28T12:24:25.128Z,8.17
2016-12-28T12:27:18.803Z,8.18
2016-12-28T12:30:12.414Z,8.15
2016-12-28T12:33:06.072Z,8.17
2016-12-28T12:35:59.681Z,8.19
2016-12-28T12:38:53.286Z,8.20
2016-12-28T12:41:46.858Z,8.24
2016-12-28T12:44:40.397Z,8.25
2016-12-28T12:47:34.001Z,8.26
2016-12-28T12:50:27.558Z,8.24
2016-12-28T12:56:14.606Z,8.23
2016-12-28T12:59:08.170Z,8.23
2016-12-28T13:02:01.625Z,8.24
2016-12-28T13:04:55.149Z,8.24
2016-12-28T13:07:48.803Z,8.25
2016-12-28T13:10:42.297Z,8.28
2016-12-28T13:13:35.877Z,8.29
2016-12-28T13:16:29.533Z,8.30
2016-12-28T13:19:22.952Z,8.30
2016-12-28T13:22:16.418Z,8.33
2016-12-28T13:28:03.520Z,8.33
2016-12-28T13:33:50.766Z,8.32
2016-12-28T13:36:44.435Z,8.33
2016-12-28T13:39:38.053Z,8.31
2016-12-28T13:42:31.600Z,8.29
2016-12-28T13:48:18.802Z,8.33
2016-12-28T13:54:06.095Z,8.33
2016-12-28T13:56:59.717Z,8.36
2016-12-28T14:02:46.829Z,8.33
2016-12-28T14:05:40.806Z,8.31
2016-12-28T14:08:34.440Z,8.30
2016-12-28T14:11:27.977Z,8.29
2016-12-28T14:14:21.560Z,8.26
2016-12-28T14:17:15.091Z,8.24
2016-12-28T14:20:08.523Z,8.23
2016-12-28T14:23:02.055Z,8.24
2016-12-28T14:25:55.716Z,8.22
2016-12-28T14:31:42.778Z,8.19
2016-12-28T14:34:36.257Z,8.16
2016-12-28T14:37:29.842Z,8.15
2016-12-28T14:40:23.279Z,8.13
2016-12-28T14:43:16.802Z,8.10
2016-12-28T14:46:10.382Z,8.06
2016-12-28T14:49:03.962Z,8.04
2016-12-28T14:54:50.922Z,7.99
2016-12-28T14:57:44.483Z,7.96
2016-12-28T15:00:37.972Z,7.94
2016-12-28T15:06:24.933Z,7.91
2016-12-28T15:09:18.342Z,7.88
2016-12-28T15:12:11.901Z,7.87
2016-12-28T15:15:05.382Z,7.84
2016-12-28T15:20:52.409Z,7.79
2016-12-28T15:23:46.214Z,7.77
2016-12-28T15:26:39.537Z,7.75
2016-12-28T15:32:26.584Z,7.73
2016-12-28T15:35:20.045Z,7.74
2016-12-28T15:38:13.620Z,7.74
2016-12-28T15:41:06.973Z,7.74
2016-12-28T15:46:53.947Z,7.74
2016-12-28T15:49:47.393Z,7.74
2016-12-28T15:52:40.863Z,7.74
2016-12-28T15:55:34.392Z,7.74
2016-12-28T15:58:27.899Z,7.74
2016-12-28T16:01:21.308Z,7.74
2016-12-28T16:07:07.867Z,7.76
2016-12-28T16:10:01.509Z,7.76
2016-12-28T16:12:55.094Z,7.77
2016-12-28T16:15:48.627Z,7.78
2016-12-28T16:18:42.286Z,7.78
2016-12-28T16:21:35.997Z,7.76
2016-12-28T16:27:23.141Z,7.75
2016-12-28T16:30:16.757Z,7.75
2016-12-28T16:41:51.478Z,7.75
2016-12-28T16:47:38.629Z,7.74
2016-12-28T16:50:32.240Z,7.71
2016-12-28T16:53:25.868Z,7.71
2016-12-28T16:56:19.531Z,7.72
2016-12-28T16:59:13.221Z,7.72
2016-12-28T17:02:06.851Z,7.71
2016-12-28T17:05:00.632Z,7.70
2016-12-28T17:10:47.978Z,7.69
2016-12-28T17:16:35.342Z,7.74
2016-12-28T17:19:28.938Z,7.72
2016-12-28T17:22:22.537Z,7.70
2016-12-28T17:31:03.536Z,7.61
2016-12-28T17:33:57.242Z,7.59
2016-12-28T17:36:50.820Z,7.56
2016-12-28T17:42:38.121Z,7.49
2016-12-28T17:45:31.782Z,7.49
2016-12-28T17:51:19.405Z,7.49
2016-12-28T17:54:13.019Z,7.47
2016-12-28T17:57:06.584Z,7.47
2016-12-28T18:02:53.684Z,7.46
2016-12-28T18:05:47.233Z,7.44
2016-12-28T18:08:40.861Z,7.44
2016-12-28T18:14:28.066Z,7.39
2016-12-28T18:17:21.544Z,7.39
2016-12-28T18:20:15.146Z,7.38
2016-12-28T18:23:08.642Z,7.38
2016-12-28T18:37:36.604Z,7.18
2016-12-28T18:40:30.046Z,7.14
2016-12-28T18:43:23.591Z,7.11
2016-12-28T18:49:10.608Z,7.05
2016-12-28T18:52:04.129Z,7.02
2016-12-28T18:54:57.645Z,6.98
2016-12-28T18:57:51.161Z,6.95
2016-12-28T19:00:45.669Z,6.91
2016-12-28T19:03:38.240Z,6.89
2016-12-28T19:09:25.385Z,6.90
2016-12-28T19:12:19.189Z,6.92
2016-12-28T19:15:13.089Z,6.93
2016-12-28T19:18:06.548Z,6.94
2016-12-28T19:23:53.670Z,6.96
2016-12-28T19:26:47.276Z,6.94
2016-12-28T19:29:40.684Z,6.93
2016-12-28T19:35:27.650Z,6.92
2016-12-28T19:38:21.277Z,6.93
2016-12-28T19:41:14.977Z,6.95
2016-12-28T19:44:08.473Z,6.96
2016-12-28T19:49:55.734Z,7.00
2016-12-28T19:52:49.840Z,7.05
2016-12-28T19:55:43.360Z,7.10
2016-12-28T19:58:36.832Z,7.15
2016-12-28T20:01:30.426Z,7.18
2016-12-28T20:04:24.084Z,7.22
2016-12-28T20:10:11.253Z,7.25
2016-12-28T20:13:04.748Z,7.26
2016-12-28T20:15:58.363Z,7.28
2016-12-28T20:18:51.965Z,7.30
2016-12-28T20:21:45.596Z,7.30
2016-12-28T20:24:39.179Z,7.33
2016-12-28T20:27:32.696Z,7.32
2016-12-28T20:30:26.406Z,7.33
2016-12-28T20:39:07.674Z,7.36
2016-12-28T20:42:01.454Z,7.39
2016-12-28T20:44:55.174Z,7.42
2016-12-28T20:50:42.814Z,7.43
2016-12-28T20:53:36.560Z,7.44
2016-12-28T20:56:30.508Z,7.45
2016-12-28T20:59:24.162Z,7.45
2016-12-28T21:05:11.315Z,7.45
2016-12-28T21:08:04.864Z,7.44
2016-12-28T21:10:58.399Z,7.46
2016-12-28T21:13:52.044Z,7.48
2016-12-28T21:19:39.708Z,7.48
2016-12-28T21:28:20.722Z,7.52
2016-12-28T21:34:07.898Z,7.51
2016-12-28T21:37:01.441Z,7.53
2016-12-28T21:39:55.060Z,7.50
2016-12-28T21:42:48.793Z,7.49
2016-12-28T21:45:42.430Z,7.46
2016-12-28T21:48:36.032Z,7.45
2016-12-28T21:51:29.563Z,7.41
2016-12-28T21:54:23.123Z,7.39
2016-12-28T21:57:16.622Z,7.39
2016-12-28T22:00:10.203Z,7.41
2016-12-28T22:03:03.885Z,7.42
2016-12-28T22:05:57.364Z,7.43
2016-12-28T22:11:44.647Z,7.45
2016-12-28T22:14:38.283Z,7.44
2016-12-28T22:17:31.892Z,7.42
2016-12-28T22:20:25.542Z,7.44
2016-12-28T22:26:12.842Z,7.38
2016-12-28T22:32:00.146Z,7.37
2016-12-28T22:34:53.785Z,7.35
2016-12-28T22:40:41.081Z,7.38
2016-12-28T22:43:34.666Z,7.39
2016-12-28T22:49:22.110Z,7.33
2016-12-28T22:52:15.692Z,7.32
2016-12-28T22:55:09.297Z,7.29
2016-12-28T22:58:02.936Z,7.27
2016-12-28T23:00:56.544Z,7.24
2016-12-28T23:06:43.859Z,7.21
2016-12-28T23:09:37.401Z,7.19
2016-12-28T23:12:30.999Z,7.15
2016-12-28T23:15:24.608Z,7.14
2016-12-28T23:21:11.769Z,7.14
2016-12-28T23:24:05.756Z,7.11
2016-12-28T23:26:59.391Z,7.10
2016-12-28T23:29:52.897Z,7.08
2016-12-28T23:32:46.491Z,7.08
2016-12-28T23:35:40.019Z,7.07
2016-12-28T23:38:33.518Z,7.03
2016-12-28T23:41:27.016Z,7.01
2016-12-28T23:44:20.575Z,7.01
2016-12-28T23:47:14.387Z,7.02
2016-12-28T23:53:01.572Z,7.10
2016-12-28T23:55:55.170Z,7.12
2016-12-28T23:58:48.807Z,7.12
